CDT,Max TemperatureF,Mean TemperatureF,Min TemperatureF,Max Dew PointF,MeanDew PointF,Min DewpointF,Max Humidity, Mean Humidity, Min Humidity, Max Sea Level PressureIn, Mean Sea Level PressureIn, Min Sea Level PressureIn, Max VisibilityMiles, Mean VisibilityMiles, Min VisibilityMiles, Max Wind SpeedMPH, Mean Wind SpeedMPH, Max Gust SpeedMPH,PrecipitationIn, CloudCover, Events, WindDirDegrees
2013-8-1,84,78,73,79,75,70,100,89,74,30.01,29.98,29.93,10,8,0,20,4,26,1.61,6,Fog-Rain-Thunderstorm,234
2013-8-2,87,80,73,79,75,72,100,87,69,30.03,29.97,29.92,10,10,7,12,3,,0.00,4,,224
2013-8-3,89,82,77,80,78,76,100,87,72,30.07,30.02,29.99,10,9,2,16,3,21,0.13,3,Rain,219
2013-8-4,93,83,73,79,76,73,100,84,52,30.08,30.02,29.97,10,7,0,20,4,34,0.32,3,Rain-Thunderstorm,261
2013-8-5,91,82,73,79,75,72,97,83,61,30.04,30.00,29.95,10,10,8,14,4,18,0.00,5,Thunderstorm,296
2013-8-6,91,83,75,79,76,73,100,86,61,30.01,29.96,29.91,10,9,3,13,4,16,0.11,5,Rain-Thunderstorm,333
2013-8-7,88,82,75,78,75,73,96,81,65,30.00,29.95,29.91,10,10,10,9,4,,0.00,3,,131
2013-8-8,89,83,77,79,77,75,96,80,65,29.99,29.96,29.92,10,10,10,13,7,,0.00,4,,112
2013-8-9,89,84,81,78,76,74,88,75,67,30.06,30.00,29.96,10,10,10,15,11,21,0.00,5,Rain,146
2013-8-10,88,82,77,77,74,72,94,76,65,30.11,30.07,30.02,10,9,1,16,8,,0.16,3,Rain,135
2013-8-11,89,82,77,79,76,73,96,81,67,30.15,30.11,30.08,10,10,6,13,6,,0.01,3,Rain-Thunderstorm,172
2013-8-12,90,84,77,79,77,75,96,82,63,30.12,30.08,30.04,10,10,10,13,4,20,0.00,5,Thunderstorm,167
2013-8-13,88,80,73,79,74,71,100,88,70,30.08,30.02,29.95,10,8,0,15,3,29,0.55,6,Fog-Rain-Thunderstorm,265
2013-8-14,88,80,73,76,73,70,97,81,61,29.98,29.94,29.90,10,10,10,9,3,,0.00,5,,295
2013-8-15,84,78,73,76,74,72,100,89,67,29.98,29.94,29.91,10,8,0,9,3,,0.02,5,Fog-Rain,280
2013-8-16,81,76,73,77,74,72,100,93,79,30.01,29.97,29.92,10,7,1,14,4,,0.02,7,Rain-Thunderstorm,37
2013-8-17,77,73,71,74,72,67,100,95,76,30.01,29.98,29.93,10,7,1,17,6,26,1.84,7,Rain,60
2013-8-18,79,75,71,76,73,67,100,94,77,30.06,30.01,29.96,10,7,0,26,11,39,3.33,7,Fog-Rain-Thunderstorm,86
2013-8-19,87,80,75,78,76,74,100,86,74,30.07,30.02,29.99,10,10,10,10,6,,0.00,5,,147
2013-8-20,84,78,73,79,74,72,100,87,74,30.10,30.06,29.99,10,10,9,15,4,23,0.00,5,Rain-Thunderstorm,96
2013-8-21,87,80,75,79,75,70,97,86,72,30.14,30.09,30.06,10,10,10,12,6,,0.00,4,Thunderstorm,80
2013-8-22,86,80,73,76,74,72,96,83,69,30.12,30.05,29.99,10,10,10,16,7,,0.00,4,,81
2013-8-23,80,76,71,75,73,70,100,93,76,30.05,30.01,29.96,10,8,1,13,6,17,0.22,7,Rain-Thunderstorm,101
2013-8-24,79,75,71,75,74,72,100,95,83,30.14,30.07,29.99,10,9,0,14,5,18,0.32,5,Fog-Rain-Thunderstorm,68
2013-8-25,84,78,73,75,74,72,100,89,74,30.20,30.17,30.11,10,9,2,16,9,30,0.51,6,Rain-Thunderstorm,81
2013-8-26,84,78,73,73,68,65,88,72,53,30.21,30.15,30.10,10,10,10,15,9,,0.00,4,Rain,73
2013-8-27,86,75,66,69,67,64,93,72,53,30.12,30.08,30.03,10,10,10,8,5,,0.00,2,,30
2013-8-28,87,78,68,73,69,66,93,76,57,30.08,30.04,30.01,10,10,10,10,4,,0.00,3,,306
2013-8-29,88,79,71,73,70,68,94,74,57,30.07,30.02,29.98,10,10,10,13,5,,0.00,2,,280
2013-8-30,91,82,73,76,72,69,91,74,50,30.03,29.97,29.92,10,10,10,13,5,,0.00,2,,288
2013-8-31,90,82,75,76,74,71,96,80,65,29.97,29.92,29.87,10,10,7,8,4,20,0.09,3,Rain-Thunderstorm,302